Terminal Aerodrome Forecast
Issued by NWS

Home | Current Version | Previous Version | Text Only | Print | Product List | Glossary On
Versions: 1 2 3 4 5 6 7 8 9 10 11 12 13 14 15 16
000
FTUS43 KUNR 261400 AAB
TAFGCC
TAF AMD
KGCC 261429Z 2614/2712 32018G28KT P6SM BKN050
      TEMPO 2614/2616 -SHRA BKN028
     FM270100 25008KT P6SM BKN040=

USA.gov is the U.S. government's official web portal to all federal, state and local government web resources and services.